sensor_id;sensor_type;location;lat;lon;timestamp;temperature;humidity
23305;DHT22;11821;51.456;8.844;2023-06-26T00:00:47;21.60;99.90
23305;DHT22;11821;51.456;8.844;2023-06-26T00:03:14;21.60;99.90
23305;DHT22;11821;51.456;8.844;2023-06-26T00:05:41;21.50;99.90
23305;DHT22;11821;51.456;8.844;2023-06-26T00:08:08;21.50;99.90
23305;DHT22;11821;51.456;8.844;2023-06-26T00:10:35;21.50;99.90
23305;DHT22;11821;51.456;8.844;2023-06-26T00:13:01;21.60;99.90
23305;DHT22;11821;51.456;8.844;2023-06-26T00:15:28;21.50;99.90
23305;DHT22;11821;51.456;8.844;2023-06-26T00:17:58;21.50;99.90
23305;DHT22;11821;51.456;8.844;2023-06-26T00:20:25;21.60;99.90
23305;DHT22;11821;51.456;8.844;2023-06-26T00:22:51;21.50;99.90
23305;DHT22;11821;51.456;8.844;2023-06-26T00:25:19;21.40;99.90
23305;DHT22;11821;51.456;8.844;2023-06-26T00:27:46;21.40;99.90
23305;DHT22;11821;51.456;8.844;2023-06-26T00:30:12;21.30;99.90
23305;DHT22;11821;51.456;8.844;2023-06-26T00:32:38;21.30;99.90
23305;DHT22;11821;51.456;8.844;2023-06-26T00:35:05;21.30;99.90
23305;DHT22;11821;51.456;8.844;2023-06-26T00:37:31;21.30;99.90
23305;DHT22;11821;51.456;8.844;2023-06-26T00:39:58;21.30;99.90
23305;DHT22;11821;51.456;8.844;2023-06-26T00:42:24;21.20;99.90
23305;DHT22;11821;51.456;8.844;2023-06-26T00:44:51;21.20;99.90
23305;DHT22;11821;51.456;8.844;2023-06-26T00:47:17;21.10;99.90
23305;DHT22;11821;51.456;8.844;2023-06-26T00:49:44;21.00;99.90
23305;DHT22;11821;51.456;8.844;2023-06-26T00:52:10;21.00;99.90
23305;DHT22;11821;51.456;8.844;2023-06-26T00:54:37;21.00;99.90
23305;DHT22;11821;51.456;8.844;2023-06-26T00:57:04;20.90;99.90
23305;DHT22;11821;51.456;8.844;2023-06-26T00:59:30;20.90;99.90
23305;DHT22;11821;51.456;8.844;2023-06-26T01:01:56;20.80;99.90
23305;DHT22;11821;51.456;8.844;2023-06-26T01:04:22;20.80;99.90
23305;DHT22;11821;51.456;8.844;2023-06-26T01:06:54;20.80;99.90
23305;DHT22;11821;51.456;8.844;2023-06-26T01:09:22;20.80;99.90
23305;DHT22;11821;51.456;8.844;2023-06-26T01:11:50;20.70;99.90
23305;DHT22;11821;51.456;8.844;2023-06-26T01:14:16;20.70;99.90
23305;DHT22;11821;51.456;8.844;2023-06-26T01:16:45;20.60;99.90
23305;DHT22;11821;51.456;8.844;2023-06-26T01:19:23;20.60;99.90
23305;DHT22;11821;51.456;8.844;2023-06-26T01:22:02;20.60;99.90
23305;DHT22;11821;51.456;8.844;2023-06-26T01:24:33;20.50;99.90
23305;DHT22;11821;51.456;8.844;2023-06-26T01:27:03;20.50;99.90
23305;DHT22;11821;51.456;8.844;2023-06-26T01:29:31;20.50;99.90
23305;DHT22;11821;51.456;8.844;2023-06-26T01:32:00;20.40;99.90
23305;DHT22;11821;51.456;8.844;2023-06-26T01:34:29;20.40;99.90
23305;DHT22;11821;51.456;8.844;2023-06-26T01:36:55;20.30;99.90
23305;DHT22;11821;51.456;8.844;2023-06-26T01:39:22;20.30;99.90
23305;DHT22;11821;51.456;8.844;2023-06-26T01:41:50;20.20;99.90
23305;DHT22;11821;51.456;8.844;2023-06-26T01:46:58;20.20;99.90
23305;DHT22;11821;51.456;8.844;2023-06-26T01:55:17;20.10;99.90
23305;DHT22;11821;51.456;8.844;2023-06-26T01:57:47;20.10;99.90
23305;DHT22;11821;51.456;8.844;2023-06-26T02:00:15;20.10;99.90
23305;DHT22;11821;51.456;8.844;2023-06-26T02:02:44;20.10;99.90
23305;DHT22;11821;51.456;8.844;2023-06-26T02:05:13;20.00;99.90
23305;DHT22;11821;51.456;8.844;2023-06-26T02:07:40;19.90;99.90
23305;DHT22;11821;51.456;8.844;2023-06-26T02:10:07;20.00;99.90
23305;DHT22;11821;51.456;8.844;2023-06-26T02:12:35;20.00;99.90
23305;DHT22;11821;51.456;8.844;2023-06-26T02:15:02;19.90;99.90
23305;DHT22;11821;51.456;8.844;2023-06-26T02:17:29;19.90;99.90
23305;DHT22;11821;51.456;8.844;2023-06-26T02:19:55;19.90;99.90
23305;DHT22;11821;51.456;8.844;2023-06-26T02:22:22;19.80;99.90
23305;DHT22;11821;51.456;8.844;2023-06-26T02:24:48;19.90;99.90
23305;DHT22;11821;51.456;8.844;2023-06-26T02:27:14;19.80;99.90
23305;DHT22;11821;51.456;8.844;2023-06-26T02:29:41;19.80;99.90
23305;DHT22;11821;51.456;8.844;2023-06-26T02:32:08;19.80;99.90
23305;DHT22;11821;51.456;8.844;2023-06-26T02:34:35;19.70;99.90
23305;DHT22;11821;51.456;8.844;2023-06-26T02:37:01;19.70;99.90
23305;DHT22;11821;51.456;8.844;2023-06-26T02:39:28;19.70;99.90
23305;DHT22;11821;51.456;8.844;2023-06-26T02:41:55;19.70;99.90
23305;DHT22;11821;51.456;8.844;2023-06-26T02:44:23;19.70;99.90
23305;DHT22;11821;51.456;8.844;2023-06-26T02:46:50;19.60;99.90
23305;DHT22;11821;51.456;8.844;2023-06-26T02:49:16;19.60;99.90
23305;DHT22;11821;51.456;8.844;2023-06-26T02:51:44;19.60;99.90
23305;DHT22;11821;51.456;8.844;2023-06-26T02:54:16;19.50;99.90
23305;DHT22;11821;51.456;8.844;2023-06-26T02:56:45;19.50;99.90
23305;DHT22;11821;51.456;8.844;2023-06-26T02:59:12;19.50;99.90
23305;DHT22;11821;51.456;8.844;2023-06-26T03:01:38;19.40;99.90
23305;DHT22;11821;51.456;8.844;2023-06-26T03:04:05;19.40;99.90
23305;DHT22;11821;51.456;8.844;2023-06-26T03:06:32;19.40;99.90
23305;DHT22;11821;51.456;8.844;2023-06-26T03:08:59;19.40;99.90
23305;DHT22;11821;51.456;8.844;2023-06-26T03:11:25;19.30;99.90
23305;DHT22;11821;51.456;8.844;2023-06-26T03:13:52;19.30;99.90
23305;DHT22;11821;51.456;8.844;2023-06-26T03:16:18;19.30;99.90
23305;DHT22;11821;51.456;8.844;2023-06-26T03:18:45;19.30;99.90
23305;DHT22;11821;51.456;8.844;2023-06-26T03:21:11;19.20;99.90
23305;DHT22;11821;51.456;8.844;2023-06-26T03:23:38;19.20;99.90
23305;DHT22;11821;51.456;8.844;2023-06-26T03:26:04;19.20;99.90
23305;DHT22;11821;51.456;8.844;2023-06-26T03:28:33;19.20;99.90
23305;DHT22;11821;51.456;8.844;2023-06-26T03:30:59;19.20;99.90
23305;DHT22;11821;51.456;8.844;2023-06-26T03:33:26;19.20;99.90
23305;DHT22;11821;51.456;8.844;2023-06-26T03:35:53;19.10;99.90
23305;DHT22;11821;51.456;8.844;2023-06-26T03:38:21;19.20;99.90
23305;DHT22;11821;51.456;8.844;2023-06-26T03:40:47;19.20;99.90
23305;DHT22;11821;51.456;8.844;2023-06-26T03:43:13;19.10;99.90
23305;DHT22;11821;51.456;8.844;2023-06-26T03:45:50;19.10;99.90
23305;DHT22;11821;51.456;8.844;2023-06-26T03:48:16;19.10;99.90
23305;DHT22;11821;51.456;8.844;2023-06-26T03:50:43;19.10;99.90
23305;DHT22;11821;51.456;8.844;2023-06-26T03:53:09;19.10;99.90
23305;DHT22;11821;51.456;8.844;2023-06-26T03:55:36;19.00;99.90
23305;DHT22;11821;51.456;8.844;2023-06-26T04:10:19;19.00;99.90
23305;DHT22;11821;51.456;8.844;2023-06-26T04:29:56;19.10;99.90
23305;DHT22;11821;51.456;8.844;2023-06-26T04:34:49;19.30;99.90
23305;DHT22;11821;51.456;8.844;2023-06-26T04:49:34;19.30;99.90
23305;DHT22;11821;51.456;8.844;2023-06-26T05:01:48;19.70;99.90
23305;DHT22;11821;51.456;8.844;2023-06-26T05:04:15;19.80;99.90
23305;DHT22;11821;51.456;8.844;2023-06-26T05:06:41;19.80;99.90
23305;DHT22;11821;51.456;8.844;2023-06-26T05:09:07;19.90;99.90
23305;DHT22;11821;51.456;8.844;2023-06-26T05:11:34;20.00;99.90
23305;DHT22;11821;51.456;8.844;2023-06-26T05:14:00;20.00;99.90
23305;DHT22;11821;51.456;8.844;2023-06-26T05:16:26;20.10;99.90
23305;DHT22;11821;51.456;8.844;2023-06-26T05:18:53;20.10;99.90
23305;DHT22;11821;51.456;8.844;2023-06-26T05:21:20;20.30;99.90
23305;DHT22;11821;51.456;8.844;2023-06-26T05:23:47;20.40;99.90
23305;DHT22;11821;51.456;8.844;2023-06-26T05:26:14;20.40;99.90
23305;DHT22;11821;51.456;8.844;2023-06-26T05:28:41;20.50;99.90
23305;DHT22;11821;51.456;8.844;2023-06-26T05:31:07;20.50;99.90
23305;DHT22;11821;51.456;8.844;2023-06-26T05:33:35;20.50;99.90
23305;DHT22;11821;51.456;8.844;2023-06-26T05:36:04;20.60;99.90
23305;DHT22;11821;51.456;8.844;2023-06-26T05:38:31;20.80;99.90
23305;DHT22;11821;51.456;8.844;2023-06-26T05:40:57;20.90;99.90
23305;DHT22;11821;51.456;8.844;2023-06-26T05:43:24;21.00;99.90
23305;DHT22;11821;51.456;8.844;2023-06-26T05:45:50;21.10;99.90
23305;DHT22;11821;51.456;8.844;2023-06-26T05:48:17;21.10;99.90
23305;DHT22;11821;51.456;8.844;2023-06-26T05:50:43;21.20;99.90
23305;DHT22;11821;51.456;8.844;2023-06-26T05:53:11;21.40;99.90
23305;DHT22;11821;51.456;8.844;2023-06-26T05:55:37;21.60;99.90
23305;DHT22;11821;51.456;8.844;2023-06-26T05:58:05;21.60;99.90
23305;DHT22;11821;51.456;8.844;2023-06-26T06:00:32;21.80;99.90
23305;DHT22;11821;51.456;8.844;2023-06-26T06:02:58;21.90;99.90
23305;DHT22;11821;51.456;8.844;2023-06-26T06:05:24;21.90;99.90
23305;DHT22;11821;51.456;8.844;2023-06-26T06:15:11;22.10;99.90
23305;DHT22;11821;51.456;8.844;2023-06-26T06:17:37;22.50;99.90
23305;DHT22;11821;51.456;8.844;2023-06-26T06:20:04;22.60;99.90
23305;DHT22;11821;51.456;8.844;2023-06-26T06:22:30;22.60;99.90
23305;DHT22;11821;51.456;8.844;2023-06-26T06:24:57;22.80;99.90
23305;DHT22;11821;51.456;8.844;2023-06-26T06:27:23;23.00;99.90
23305;DHT22;11821;51.456;8.844;2023-06-26T06:29:49;23.20;99.90
23305;DHT22;11821;51.456;8.844;2023-06-26T06:32:16;23.30;99.90
23305;DHT22;11821;51.456;8.844;2023-06-26T06:34:42;23.40;99.90
23305;DHT22;11821;51.456;8.844;2023-06-26T06:37:08;23.60;99.90
23305;DHT22;11821;51.456;8.844;2023-06-26T06:39:35;23.90;99.90
23305;DHT22;11821;51.456;8.844;2023-06-26T06:42:01;24.00;99.90
23305;DHT22;11821;51.456;8.844;2023-06-26T06:44:27;24.20;99.90
23305;DHT22;11821;51.456;8.844;2023-06-26T06:46:54;24.40;99.90
23305;DHT22;11821;51.456;8.844;2023-06-26T06:49:20;24.60;99.90
23305;DHT22;11821;51.456;8.844;2023-06-26T06:51:46;24.90;99.90
23305;DHT22;11821;51.456;8.844;2023-06-26T06:54:14;25.20;99.90
23305;DHT22;11821;51.456;8.844;2023-06-26T06:56:41;25.50;99.90
23305;DHT22;11821;51.456;8.844;2023-06-26T06:59:07;25.70;99.90
23305;DHT22;11821;51.456;8.844;2023-06-26T07:01:34;25.90;99.90
23305;DHT22;11821;51.456;8.844;2023-06-26T07:04:00;26.10;99.90
23305;DHT22;11821;51.456;8.844;2023-06-26T07:06:26;26.40;99.90
23305;DHT22;11821;51.456;8.844;2023-06-26T07:08:53;26.60;99.90
23305;DHT22;11821;51.456;8.844;2023-06-26T07:11:19;26.90;99.90
23305;DHT22;11821;51.456;8.844;2023-06-26T07:13:45;27.10;99.90
23305;DHT22;11821;51.456;8.844;2023-06-26T07:16:12;27.20;99.90
23305;DHT22;11821;51.456;8.844;2023-06-26T07:18:38;27.40;99.90
23305;DHT22;11821;51.456;8.844;2023-06-26T07:21:05;27.50;99.90
23305;DHT22;11821;51.456;8.844;2023-06-26T07:23:31;27.80;99.90
23305;DHT22;11821;51.456;8.844;2023-06-26T07:25:57;28.00;99.90
23305;DHT22;11821;51.456;8.844;2023-06-26T07:28:24;28.30;99.90
23305;DHT22;11821;51.456;8.844;2023-06-26T07:30:50;28.60;99.90
23305;DHT22;11821;51.456;8.844;2023-06-26T07:33:17;28.80;99.90
23305;DHT22;11821;51.456;8.844;2023-06-26T07:35:43;28.90;99.90
23305;DHT22;11821;51.456;8.844;2023-06-26T07:38:09;29.10;99.90
23305;DHT22;11821;51.456;8.844;2023-06-26T07:40:36;29.30;99.90
23305;DHT22;11821;51.456;8.844;2023-06-26T07:43:02;29.40;99.90
23305;DHT22;11821;51.456;8.844;2023-06-26T07:45:28;29.70;99.90
23305;DHT22;11821;51.456;8.844;2023-06-26T07:47:54;29.70;99.90
23305;DHT22;11821;51.456;8.844;2023-06-26T07:50:21;29.60;99.90
23305;DHT22;11821;51.456;8.844;2023-06-26T07:52:49;29.70;99.90
23305;DHT22;11821;51.456;8.844;2023-06-26T07:55:15;29.70;99.80
23305;DHT22;11821;51.456;8.844;2023-06-26T07:57:42;29.70;99.90
23305;DHT22;11821;51.456;8.844;2023-06-26T08:00:09;29.70;99.60
23305;DHT22;11821;51.456;8.844;2023-06-26T08:02:41;29.90;99.90
23305;DHT22;11821;51.456;8.844;2023-06-26T08:05:07;30.10;99.60
23305;DHT22;11821;51.456;8.844;2023-06-26T08:07:34;30.20;99.90
23305;DHT22;11821;51.456;8.844;2023-06-26T08:10:00;30.50;99.90
23305;DHT22;11821;51.456;8.844;2023-06-26T08:12:26;30.70;99.70
23305;DHT22;11821;51.456;8.844;2023-06-26T08:14:53;30.70;99.50
23305;DHT22;11821;51.456;8.844;2023-06-26T08:17:19;31.10;99.60
23305;DHT22;11821;51.456;8.844;2023-06-26T08:19:45;31.00;98.70
23305;DHT22;11821;51.456;8.844;2023-06-26T08:22:12;30.80;99.50
23305;DHT22;11821;51.456;8.844;2023-06-26T08:24:38;30.50;99.90
23305;DHT22;11821;51.456;8.844;2023-06-26T08:27:04;30.70;99.20
23305;DHT22;11821;51.456;8.844;2023-06-26T08:29:31;30.80;98.80
23305;DHT22;11821;51.456;8.844;2023-06-26T08:31:58;30.50;99.40
23305;DHT22;11821;51.456;8.844;2023-06-26T08:34:24;30.40;99.40
23305;DHT22;11821;51.456;8.844;2023-06-26T08:36:50;30.20;99.80
23305;DHT22;11821;51.456;8.844;2023-06-26T08:39:17;30.10;99.90
23305;DHT22;11821;51.456;8.844;2023-06-26T08:41:43;30.00;99.90
23305;DHT22;11821;51.456;8.844;2023-06-26T08:44:09;30.00;99.90
23305;DHT22;11821;51.456;8.844;2023-06-26T08:46:36;29.80;99.90
23305;DHT22;11821;51.456;8.844;2023-06-26T08:49:21;29.90;99.90
23305;DHT22;11821;51.456;8.844;2023-06-26T08:51:52;30.00;99.90
23305;DHT22;11821;51.456;8.844;2023-06-26T08:54:28;29.90;99.90
23305;DHT22;11821;51.456;8.844;2023-06-26T08:56:57;29.80;99.90
23305;DHT22;11821;51.456;8.844;2023-06-26T08:59:25;29.40;99.90
23305;DHT22;11821;51.456;8.844;2023-06-26T09:01:51;29.10;99.90
23305;DHT22;11821;51.456;8.844;2023-06-26T09:04:18;29.50;99.90
23305;DHT22;11821;51.456;8.844;2023-06-26T09:06:45;29.80;99.90
23305;DHT22;11821;51.456;8.844;2023-06-26T09:09:11;30.00;99.60
23305;DHT22;11821;51.456;8.844;2023-06-26T09:11:37;30.20;99.90
23305;DHT22;11821;51.456;8.844;2023-06-26T09:14:04;30.60;99.70
23305;DHT22;11821;51.456;8.844;2023-06-26T09:16:39;30.70;99.90
23305;DHT22;11821;51.456;8.844;2023-06-26T09:19:11;30.60;99.10
23305;DHT22;11821;51.456;8.844;2023-06-26T09:21:41;30.80;98.40
23305;DHT22;11821;51.456;8.844;2023-06-26T09:24:10;30.70;99.10
23305;DHT22;11821;51.456;8.844;2023-06-26T09:26:37;30.80;98.70
23305;DHT22;11821;51.456;8.844;2023-06-26T09:29:08;30.80;99.30
23305;DHT22;11821;51.456;8.844;2023-06-26T09:31:37;31.00;99.40
23305;DHT22;11821;51.456;8.844;2023-06-26T09:34:03;31.40;98.60
23305;DHT22;11821;51.456;8.844;2023-06-26T09:36:30;31.00;98.70
23305;DHT22;11821;51.456;8.844;2023-06-26T09:39:03;30.80;98.80
23305;DHT22;11821;51.456;8.844;2023-06-26T09:41:43;30.50;99.70
23305;DHT22;11821;51.456;8.844;2023-06-26T09:44:13;30.50;99.90
23305;DHT22;11821;51.456;8.844;2023-06-26T09:46:40;30.60;99.90
23305;DHT22;11821;51.456;8.844;2023-06-26T09:49:10;30.50;99.90
23305;DHT22;11821;51.456;8.844;2023-06-26T09:51:39;30.30;99.90
23305;DHT22;11821;51.456;8.844;2023-06-26T09:54:06;30.20;99.90
23305;DHT22;11821;51.456;8.844;2023-06-26T09:56:33;30.40;99.90
23305;DHT22;11821;51.456;8.844;2023-06-26T09:59:03;30.20;99.90
23305;DHT22;11821;51.456;8.844;2023-06-26T10:01:31;30.30;99.60
23305;DHT22;11821;51.456;8.844;2023-06-26T10:03:57;30.30;99.60
23305;DHT22;11821;51.456;8.844;2023-06-26T10:06:31;30.50;99.60
23305;DHT22;11821;51.456;8.844;2023-06-26T10:09:01;30.50;99.90
23305;DHT22;11821;51.456;8.844;2023-06-26T10:11:45;30.60;99.90
23305;DHT22;11821;51.456;8.844;2023-06-26T10:14:14;30.50;99.90
23305;DHT22;11821;51.456;8.844;2023-06-26T10:16:41;30.10;99.90
23305;DHT22;11821;51.456;8.844;2023-06-26T10:19:10;30.00;99.90
23305;DHT22;11821;51.456;8.844;2023-06-26T10:21:38;29.90;99.90
23305;DHT22;11821;51.456;8.844;2023-06-26T10:24:08;29.60;99.90
23305;DHT22;11821;51.456;8.844;2023-06-26T10:26:41;29.60;99.90
23305;DHT22;11821;51.456;8.844;2023-06-26T10:29:08;29.70;99.90
23305;DHT22;11821;51.456;8.844;2023-06-26T10:31:36;29.50;99.90
23305;DHT22;11821;51.456;8.844;2023-06-26T10:34:03;29.30;99.90
23305;DHT22;11821;51.456;8.844;2023-06-26T10:36:35;29.00;99.90
23305;DHT22;11821;51.456;8.844;2023-06-26T10:39:04;28.70;99.90
23305;DHT22;11821;51.456;8.844;2023-06-26T10:41:38;29.00;99.90
23305;DHT22;11821;51.456;8.844;2023-06-26T10:44:25;29.00;99.90
23305;DHT22;11821;51.456;8.844;2023-06-26T10:46:53;29.20;99.90
23305;DHT22;11821;51.456;8.844;2023-06-26T10:49:21;29.70;99.90
23305;DHT22;11821;51.456;8.844;2023-06-26T10:51:51;29.50;99.90
23305;DHT22;11821;51.456;8.844;2023-06-26T10:54:18;29.50;99.90
23305;DHT22;11821;51.456;8.844;2023-06-26T10:56:47;29.90;99.90
23305;DHT22;11821;51.456;8.844;2023-06-26T10:59:18;30.00;99.30
23305;DHT22;11821;51.456;8.844;2023-06-26T11:01:59;29.90;98.70
23305;DHT22;11821;51.456;8.844;2023-06-26T11:07:22;29.60;99.90
23305;DHT22;11821;51.456;8.844;2023-06-26T11:10:08;29.80;99.90
23305;DHT22;11821;51.456;8.844;2023-06-26T11:12:44;29.80;99.50
23305;DHT22;11821;51.456;8.844;2023-06-26T11:15:16;29.70;99.90
23305;DHT22;11821;51.456;8.844;2023-06-26T11:17:43;29.00;99.90
23305;DHT22;11821;51.456;8.844;2023-06-26T11:20:11;29.20;99.90
23305;DHT22;11821;51.456;8.844;2023-06-26T11:22:39;29.20;99.90
23305;DHT22;11821;51.456;8.844;2023-06-26T11:25:07;29.30;99.90
23305;DHT22;11821;51.456;8.844;2023-06-26T11:27:41;29.00;99.90
23305;DHT22;11821;51.456;8.844;2023-06-26T11:30:23;28.90;99.90
23305;DHT22;11821;51.456;8.844;2023-06-26T11:32:49;28.80;99.90
23305;DHT22;11821;51.456;8.844;2023-06-26T11:35:23;28.70;99.90
23305;DHT22;11821;51.456;8.844;2023-06-26T11:38:00;28.90;99.90
23305;DHT22;11821;51.456;8.844;2023-06-26T11:40:33;28.80;99.90
23305;DHT22;11821;51.456;8.844;2023-06-26T11:43:03;29.00;99.80
23305;DHT22;11821;51.456;8.844;2023-06-26T11:45:33;29.40;99.60
23305;DHT22;11821;51.456;8.844;2023-06-26T11:48:00;29.70;99.30
23305;DHT22;11821;51.456;8.844;2023-06-26T11:50:27;29.90;98.80
23305;DHT22;11821;51.456;8.844;2023-06-26T11:52:57;30.00;99.20
23305;DHT22;11821;51.456;8.844;2023-06-26T11:55:25;29.90;99.50
23305;DHT22;11821;51.456;8.844;2023-06-26T11:57:55;29.80;99.20
23305;DHT22;11821;51.456;8.844;2023-06-26T12:00:23;29.70;99.40
23305;DHT22;11821;51.456;8.844;2023-06-26T12:02:49;29.40;99.90
23305;DHT22;11821;51.456;8.844;2023-06-26T12:05:18;29.70;99.60
23305;DHT22;11821;51.456;8.844;2023-06-26T12:07:48;30.00;99.30
23305;DHT22;11821;51.456;8.844;2023-06-26T12:10:16;30.30;99.20
23305;DHT22;11821;51.456;8.844;2023-06-26T12:12:43;30.20;98.60
23305;DHT22;11821;51.456;8.844;2023-06-26T12:15:13;30.20;99.20
23305;DHT22;11821;51.456;8.844;2023-06-26T12:17:40;30.30;97.90
23305;DHT22;11821;51.456;8.844;2023-06-26T12:20:18;30.40;97.70
23305;DHT22;11821;51.456;8.844;2023-06-26T12:22:49;30.80;97.60
23305;DHT22;11821;51.456;8.844;2023-06-26T12:25:16;31.10;97.70
23305;DHT22;11821;51.456;8.844;2023-06-26T12:27:47;31.00;96.70
23305;DHT22;11821;51.456;8.844;2023-06-26T12:30:13;30.80;96.40
23305;DHT22;11821;51.456;8.844;2023-06-26T12:32:40;30.90;95.90
23305;DHT22;11821;51.456;8.844;2023-06-26T12:35:07;30.80;96.30
23305;DHT22;11821;51.456;8.844;2023-06-26T12:37:38;30.90;96.70
23305;DHT22;11821;51.456;8.844;2023-06-26T12:40:20;31.10;95.00
23305;DHT22;11821;51.456;8.844;2023-06-26T12:42:49;30.70;96.60
23305;DHT22;11821;51.456;8.844;2023-06-26T12:45:16;30.80;97.90
23305;DHT22;11821;51.456;8.844;2023-06-26T12:47:42;30.40;96.50
23305;DHT22;11821;51.456;8.844;2023-06-26T12:50:09;30.20;96.90
23305;DHT22;11821;51.456;8.844;2023-06-26T12:52:35;29.80;96.50
23305;DHT22;11821;51.456;8.844;2023-06-26T12:55:01;29.40;97.80
23305;DHT22;11821;51.456;8.844;2023-06-26T12:57:28;29.50;97.60
23305;DHT22;11821;51.456;8.844;2023-06-26T12:59:54;29.80;97.60
23305;DHT22;11821;51.456;8.844;2023-06-26T13:02:20;30.30;97.50
23305;DHT22;11821;51.456;8.844;2023-06-26T13:04:50;30.90;96.50
23305;DHT22;11821;51.456;8.844;2023-06-26T13:07:16;31.00;95.20
23305;DHT22;11821;51.456;8.844;2023-06-26T13:09:42;31.20;94.40
23305;DHT22;11821;51.456;8.844;2023-06-26T13:12:11;31.30;94.30
23305;DHT22;11821;51.456;8.844;2023-06-26T13:14:37;31.10;94.20
23305;DHT22;11821;51.456;8.844;2023-06-26T13:17:04;31.30;95.20
23305;DHT22;11821;51.456;8.844;2023-06-26T13:19:31;31.40;94.50
23305;DHT22;11821;51.456;8.844;2023-06-26T13:21:57;31.10;94.10
23305;DHT22;11821;51.456;8.844;2023-06-26T13:24:24;31.20;94.00
23305;DHT22;11821;51.456;8.844;2023-06-26T13:26:50;31.30;95.50
23305;DHT22;11821;51.456;8.844;2023-06-26T13:29:17;31.40;93.70
23305;DHT22;11821;51.456;8.844;2023-06-26T13:31:43;31.50;94.80
23305;DHT22;11821;51.456;8.844;2023-06-26T13:34:20;31.50;93.90
23305;DHT22;11821;51.456;8.844;2023-06-26T13:36:47;31.50;92.80
23305;DHT22;11821;51.456;8.844;2023-06-26T13:39:13;31.00;94.30
23305;DHT22;11821;51.456;8.844;2023-06-26T13:41:39;30.90;93.50
23305;DHT22;11821;51.456;8.844;2023-06-26T13:44:05;30.90;93.50
23305;DHT22;11821;51.456;8.844;2023-06-26T13:46:32;30.80;93.10
23305;DHT22;11821;51.456;8.844;2023-06-26T13:48:58;30.80;93.90
23305;DHT22;11821;51.456;8.844;2023-06-26T13:51:25;30.70;95.00
23305;DHT22;11821;51.456;8.844;2023-06-26T13:53:51;30.70;94.10
23305;DHT22;11821;51.456;8.844;2023-06-26T13:56:18;30.70;93.80
23305;DHT22;11821;51.456;8.844;2023-06-26T13:58:44;30.90;92.70
23305;DHT22;11821;51.456;8.844;2023-06-26T14:01:10;30.90;94.00
23305;DHT22;11821;51.456;8.844;2023-06-26T14:03:37;31.10;94.90
23305;DHT22;11821;51.456;8.844;2023-06-26T14:06:03;31.00;94.90
23305;DHT22;11821;51.456;8.844;2023-06-26T14:08:30;31.00;95.80
23305;DHT22;11821;51.456;8.844;2023-06-26T14:10:56;30.90;94.30
23305;DHT22;11821;51.456;8.844;2023-06-26T14:13:22;30.60;93.90
23305;DHT22;11821;51.456;8.844;2023-06-26T14:15:49;30.40;95.40
23305;DHT22;11821;51.456;8.844;2023-06-26T14:18:18;30.00;94.70
23305;DHT22;11821;51.456;8.844;2023-06-26T14:20:45;29.60;94.80
23305;DHT22;11821;51.456;8.844;2023-06-26T14:23:12;29.70;94.60
23305;DHT22;11821;51.456;8.844;2023-06-26T14:25:39;29.70;95.30
23305;DHT22;11821;51.456;8.844;2023-06-26T14:28:05;29.70;96.10
23305;DHT22;11821;51.456;8.844;2023-06-26T14:30:31;29.70;95.00
23305;DHT22;11821;51.456;8.844;2023-06-26T14:32:58;29.30;95.40
23305;DHT22;11821;51.456;8.844;2023-06-26T14:35:24;29.40;95.40
23305;DHT22;11821;51.456;8.844;2023-06-26T14:37:50;29.70;96.40
23305;DHT22;11821;51.456;8.844;2023-06-26T14:40:16;29.40;93.20
23305;DHT22;11821;51.456;8.844;2023-06-26T14:42:43;29.60;94.70
23305;DHT22;11821;51.456;8.844;2023-06-26T14:45:10;29.90;94.80
23305;DHT22;11821;51.456;8.844;2023-06-26T14:47:36;30.00;95.10
23305;DHT22;11821;51.456;8.844;2023-06-26T14:50:03;29.70;93.70
23305;DHT22;11821;51.456;8.844;2023-06-26T14:52:29;29.80;93.80
23305;DHT22;11821;51.456;8.844;2023-06-26T14:54:55;29.70;93.20
23305;DHT22;11821;51.456;8.844;2023-06-26T14:57:21;29.80;94.40
23305;DHT22;11821;51.456;8.844;2023-06-26T14:59:48;29.50;94.80
23305;DHT22;11821;51.456;8.844;2023-06-26T15:02:14;29.70;94.10
23305;DHT22;11821;51.456;8.844;2023-06-26T15:04:40;29.40;93.70
23305;DHT22;11821;51.456;8.844;2023-06-26T15:07:07;29.40;95.10
23305;DHT22;11821;51.456;8.844;2023-06-26T15:09:33;29.30;94.70
23305;DHT22;11821;51.456;8.844;2023-06-26T15:12:00;29.40;93.50
23305;DHT22;11821;51.456;8.844;2023-06-26T15:14:27;29.10;93.80
23305;DHT22;11821;51.456;8.844;2023-06-26T15:16:53;29.10;93.70
23305;DHT22;11821;51.456;8.844;2023-06-26T15:19:19;29.20;93.70
23305;DHT22;11821;51.456;8.844;2023-06-26T15:21:45;28.90;92.90
23305;DHT22;11821;51.456;8.844;2023-06-26T15:24:12;28.90;92.90
23305;DHT22;11821;51.456;8.844;2023-06-26T15:26:38;29.20;94.00
23305;DHT22;11821;51.456;8.844;2023-06-26T15:29:04;29.00;91.80
23305;DHT22;11821;51.456;8.844;2023-06-26T15:31:31;29.10;93.00
23305;DHT22;11821;51.456;8.844;2023-06-26T15:33:57;29.30;91.70
23305;DHT22;11821;51.456;8.844;2023-06-26T15:36:24;29.10;91.30
23305;DHT22;11821;51.456;8.844;2023-06-26T15:38:50;29.10;91.20
23305;DHT22;11821;51.456;8.844;2023-06-26T15:41:16;29.00;90.50
23305;DHT22;11821;51.456;8.844;2023-06-26T15:43:44;29.10;90.80
23305;DHT22;11821;51.456;8.844;2023-06-26T15:46:10;28.70;92.30
23305;DHT22;11821;51.456;8.844;2023-06-26T15:48:37;28.90;91.40
23305;DHT22;11821;51.456;8.844;2023-06-26T15:51:03;28.70;92.40
23305;DHT22;11821;51.456;8.844;2023-06-26T15:53:39;28.50;91.40
23305;DHT22;11821;51.456;8.844;2023-06-26T15:56:10;28.40;91.10
23305;DHT22;11821;51.456;8.844;2023-06-26T15:58:37;28.40;91.30
23305;DHT22;11821;51.456;8.844;2023-06-26T16:01:12;28.20;90.40
23305;DHT22;11821;51.456;8.844;2023-06-26T16:03:40;28.10;90.80
23305;DHT22;11821;51.456;8.844;2023-06-26T16:06:08;27.90;91.00
23305;DHT22;11821;51.456;8.844;2023-06-26T16:08:35;27.90;91.30
23305;DHT22;11821;51.456;8.844;2023-06-26T16:11:01;27.80;91.90
23305;DHT22;11821;51.456;8.844;2023-06-26T16:13:28;28.00;92.40
23305;DHT22;11821;51.456;8.844;2023-06-26T16:15:55;28.00;91.60
23305;DHT22;11821;51.456;8.844;2023-06-26T16:18:22;28.10;91.80
23305;DHT22;11821;51.456;8.844;2023-06-26T16:20:48;28.10;91.40
23305;DHT22;11821;51.456;8.844;2023-06-26T16:23:14;28.00;91.10
23305;DHT22;11821;51.456;8.844;2023-06-26T16:25:41;27.80;93.20
23305;DHT22;11821;51.456;8.844;2023-06-26T16:28:07;27.70;91.60
23305;DHT22;11821;51.456;8.844;2023-06-26T16:30:33;27.70;92.10
23305;DHT22;11821;51.456;8.844;2023-06-26T16:33:00;27.40;91.60
23305;DHT22;11821;51.456;8.844;2023-06-26T16:35:29;27.40;92.90
23305;DHT22;11821;51.456;8.844;2023-06-26T16:38:00;27.40;92.60
23305;DHT22;11821;51.456;8.844;2023-06-26T16:40:28;27.30;93.20
23305;DHT22;11821;51.456;8.844;2023-06-26T16:42:58;27.50;93.20
23305;DHT22;11821;51.456;8.844;2023-06-26T16:45:24;27.60;91.70